Latest Weather Observations for Giles*

IDD60801

Issued at 9:11 am CST Wednesday 19 June 2019 (issued every 10 minutes, with the page automatically refreshed every 10 minutes)

About weather observations | Map of weather stations | Latest weather observations for NT | Other Formats
Station Details ID: 013017 Name: GILES METEOROLOGICAL OFFICE Lat: -25.03 Lon: 128.30 Height: 598.0 m
Data from the previous 72 hours. | See also: Recent months at Giles*

* Giles observations are collected in the South Australia time zone, which includes daylight saving in the summer period. Therefore, Rain since 9am value is with respect to South Australia local time.

Date/Time
CST
Temp
°C
App
Temp
°C
Dew
Point
°C
Rel
Hum
%
Delta-T
°C
Wind Press
QNH
hPa
Press
MSL
hPa
Rain since
9am
mm
Dir  Spd
km/h
Gust
km/h
Spd
kts
Gust
kts
19/09:00am 11.4 6.6 2.4 54 4.0 E 17 22 9 12 1024.2 1023.4 0.0
19/08:30am 12.5 9.1 -0.3 41 5.4 SE 7 11 4 6 1024.5 1023.6 0.0
19/08:00am 12.1 7.6 -0.6 41 5.3 ENE 13 17 7 9 1023.5 1022.6 0.0
19/07:30am 11.8 7.2 -1.0 41 5.3 E 13 20 7 11 1023.2 1022.3 0.0
19/07:00am 12.7 8.2 -0.6 40 5.6 ENE 13 20 7 11 1022.8 1021.9 0.0
19/06:30am 12.6 8.4 -0.8 39 5.6 ENE 11 19 6 10 1022.5 1021.6 0.0
19/06:00am 12.9 7.6 -0.6 39 5.7 ENE 17 28 9 15 1022.1 1021.2 0.0
19/05:30am 12.9 8.0 -0.6 39 5.7 ENE 15 24 8 13 1022.3 1021.4 0.0
19/05:00am 12.8 8.3 -0.4 40 5.6 ENE 13 24 7 13 1022.1 1021.2 0.0
19/04:30am 12.5 7.2 -0.6 40 5.5 E 17 22 9 12 1022.0 1021.1 0.0
19/04:00am 11.5 7.4 -0.2 44 4.9 E 11 15 6 8 1022.2 1021.3 0.0
19/03:30am 11.6 7.0 -0.7 42 5.1 E 13 20 7 11 1022.1 1021.2 0.0
19/03:00am 11.3 6.7 -0.8 43 5.0 E 13 17 7 9 1022.1 1021.2 0.0
19/02:30am 10.9 5.5 -1.1 43 4.9 E 17 24 9 13 1022.0 1021.1 0.0
19/02:00am 10.9 5.1 -1.4 42 5.0 E 19 24 10 13 1022.1 1021.2 0.0
19/01:30am 11.3 5.5 -1.5 41 5.2 E 19 24 10 13 1022.2 1021.3 0.0
19/01:00am 11.9 6.1 -1.6 39 5.5 E 19 24 10 13 1022.4 1021.5 0.0
19/12:30am 10.9 6.3 -1.1 43 4.9 ESE 13 17 7 9 1022.9 1022.0 0.0
19/12:00am 10.9 6.3 -1.4 42 5.0 ESE 13 15 7 8 1023.2 1022.3 0.0
 
Date/Time
CST
Temp
°C
App
Temp
°C
Dew
Point
°C
Rel
Hum
%
Delta-T
°C
Wind Press
QNH
hPa
Press
MSL
hPa
Rain since
9am
mm
Dir  Spd
km/h
Gust
km/h
Spd
kts
Gust
kts
18/11:30pm 11.4 7.2 -1.0 42 5.1 E 11 13 6 7 1023.2 1022.3 0.0
18/11:00pm 11.3 7.2 -0.5 44 4.9 ESE 11 13 6 7 1023.2 1022.3 0.0
18/10:30pm 11.6 6.6 -1.3 40 5.3 ESE 15 17 8 9 1023.2 1022.3 0.0
18/10:00pm 12.8 8.2 -0.8 39 5.7 E 13 17 7 9 1023.4 1022.5 0.0
18/09:30pm 13.2 8.6 -0.8 38 5.9 ENE 13 13 7 7 1023.3 1022.4 0.0
18/09:00pm 13.5 8.9 -1.0 36 6.1 E 13 17 7 9 1023.3 1022.4 0.0
18/08:30pm 14.5 9.9 -0.7 35 6.5 E 13 15 7 8 1023.3 1022.4 0.0
18/08:00pm 14.8 10.7 -0.2 36 6.5 E 11 13 6 7 1023.3 1022.4 0.0
18/07:30pm 15.6 11.4 -0.6 33 7.0 ESE 11 13 6 7 1023.0 1022.1 0.0
18/07:00pm 16.6 12.0 -0.9 30 7.6 SE 13 17 7 9 1022.5 1021.6 0.0
18/06:30pm 17.5 12.1 -1.1 28 8.1 ESE 17 24 9 13 1022.2 1021.3 0.0
18/06:00pm 19.0 14.5 -0.5 27 8.7 ENE 13 17 7 9 1022.0 1021.1 0.0
18/05:30pm 19.4 14.9 -0.1 27 8.8 ENE 13 19 7 10 1022.0 1021.1 0.0
18/05:00pm 19.8 15.0 0.3 27 8.9 ENE 15 20 8 11 1022.0 1021.1 0.0
18/04:30pm 20.7 16.1 -0.9 23 9.7 ENE 13 19 7 10 1021.9 1021.0 0.0
18/04:00pm 20.5 15.5 -1.3 23 9.7 ENE 15 20 8 11 1021.8 1020.9 0.0
18/03:30pm 20.2 14.9 -0.3 25 9.3 ENE 17 22 9 12 1021.9 1021.0 0.0
18/03:00pm 20.3 15.3 -1.3 23 9.6 E 15 20 8 11 1022.1 1021.2 0.0
18/02:30pm 20.1 14.7 -1.3 23 9.5 E 17 24 9 13 1022.4 1021.5 0.0
18/02:00pm 20.0 14.6 -1.1 24 9.4 ENE 17 20 9 11 1023.1 1022.2 0.0
18/01:30pm 19.7 14.8 -0.6 25 9.1 E 15 22 8 12 1023.6 1022.7 0.0
18/01:00pm 18.6 12.8 -1.3 26 8.7 E 19 30 10 16 1024.2 1023.4 0.0
18/12:30pm 18.7 12.8 -1.1 26 8.7 E 20 30 11 16 1024.6 1023.7 0.0
18/12:00pm 17.6 9.7 -1.7 27 8.3 E 30 39 16 21 1024.8 1023.9 0.0
18/11:30am 17.2 9.7 -1.3 28 8.0 E 28 44 15 24 1025.1 1024.2 0.0
18/11:00am 16.0 9.0 -0.6 32 7.2 E 26 37 14 20 1025.6 1024.8 0.0
18/10:30am 15.4 7.3 -0.6 33 6.9 E 32 43 17 23 1025.5 1024.6 0.0
18/10:00am 14.3 6.9 -0.4 36 6.3 E 28 41 15 22 1025.4 1024.5 0.0
18/09:30am 13.5 6.5 -0.4 38 5.9 ESE 26 39 14 21 1025.3 1024.4 0.0
18/09:00am 12.3 5.7 -0.3 42 5.3 ESE 24 35 13 19 1025.3 1024.4 0.0
18/08:30am 10.6 4.5 0.1 48 4.4 ESE 22 30 12 16 1025.3 1024.4 0.0
18/08:00am 9.9 2.9 -0.3 49 4.2 ESE 26 35 14 19 1024.8 1023.9 0.0
18/07:30am 9.8 2.8 -0.4 49 4.2 ESE 26 37 14 20 1024.5 1023.6 0.0
18/07:00am 9.8 2.4 -0.4 49 4.2 ESE 28 39 15 21 1024.5 1023.6 0.0
18/06:30am 9.5 2.5 -0.2 51 4.0 ESE 26 35 14 19 1024.2 1023.4 0.0
18/06:00am 8.8 3.2 0.0 54 3.6 ESE 19 24 10 13 1024.1 1023.3 0.0
18/05:30am 7.9 2.6 -0.3 56 3.3 ESE 17 20 9 11 1023.9 1023.0 0.0
18/05:00am 7.3 2.4 -0.8 56 3.2 ESE 15 20 8 11 1024.0 1023.1 0.0
18/04:30am 7.6 2.7 -0.7 55 3.3 ESE 15 19 8 10 1024.0 1023.1 0.0
18/04:00am 8.7 3.0 -0.7 51 3.8 ESE 19 24 10 13 1023.9 1023.0 0.0
18/03:30am 8.6 3.3 -0.9 51 3.8 ESE 17 20 9 11 1024.0 1023.1 0.0
18/03:00am 8.6 3.6 -1.2 50 3.9 SE 15 19 8 10 1024.1 1023.3 0.0
18/02:30am 9.5 4.1 -1.2 47 4.3 SE 17 20 9 11 1024.2 1023.4 0.0
18/02:00am 9.5 4.1 -1.5 46 4.4 ESE 17 20 9 11 1024.1 1023.3 0.0
18/01:30am 10.1 5.0 -2.0 42 4.8 ESE 15 20 8 11 1024.2 1023.4 0.0
18/01:00am 11.0 5.5 -2.0 40 5.2 SE 17 20 9 11 1024.3 1023.5 0.0
18/12:30am 11.9 5.8 -2.3 37 5.7 SE 20 26 11 14 1024.2 1023.4 0.0
18/12:00am 12.1 6.5 -3.1 34 6.0 ESE 17 26 9 14 1024.2 1023.4 0.0
 
Date/Time
CST
Temp
°C
App
Temp
°C
Dew
Point
°C
Rel
Hum
%
Delta-T
°C
Wind Press
QNH
hPa
Press
MSL
hPa
Rain since
9am
mm
Dir  Spd
km/h
Gust
km/h
Spd
kts
Gust
kts
17/11:30pm 12.5 6.9 -3.1 33 6.2 SE 17 22 9 12 1024.2 1023.4 0.0
17/11:00pm 13.1 7.5 -3.2 32 6.5 SE 17 24 9 13 1024.2 1023.4 0.0
17/10:30pm 13.6 8.3 -3.5 30 6.8 SE 15 19 8 10 1024.3 1023.5 0.0
17/10:00pm 13.8 8.1 -3.5 30 6.9 SE 17 20 9 11 1024.1 1023.3 0.0
17/09:30pm 14.2 8.5 -3.5 29 7.1 SSE 17 20 9 11 1024.1 1023.3 0.0
17/09:00pm 14.9 9.2 -3.8 27 7.5 SSE 17 20 9 11 1023.9 1023.0 0.0
17/08:30pm 15.7 10.0 -3.9 25 7.9 SSE 17 20 9 11 1023.6 1022.7 0.0
17/08:00pm 16.5 10.1 -4.8 23 8.5 SSE 20 30 11 16 1023.3 1022.4 0.0
17/07:30pm 16.9 11.0 -5.8 20 8.9 SSE 17 20 9 11 1023.0 1022.1 0.0
17/07:00pm 17.4 11.9 -5.1 21 9.0 SSE 15 19 8 10 1022.8 1021.9 0.0
17/06:30pm 18.8 12.9 -5.6 18 9.8 SSE 17 24 9 13 1022.3 1021.4 0.0
17/06:00pm 20.3 14.4 -5.8 16 10.6 SSE 17 26 9 14 1022.0 1021.1 0.0
17/05:30pm 20.8 14.6 -5.0 17 10.7 SSE 19 28 10 15 1021.8 1020.9 0.0
17/05:00pm 22.1 16.4 -4.1 17 11.2 S 17 24 9 13 1021.7 1020.8 0.0
17/04:30pm 22.3 17.2 -2.3 19 10.9 SSW 15 20 8 11 1021.7 1020.8 0.0
17/04:00pm 22.1 17.0 -1.9 20 10.7 SSE 15 26 8 14 1021.5 1020.6 0.0
17/03:30pm 22.9 19.4 -1.3 20 11.0 SW 7 20 4 11 1021.5 1020.6 0.0
17/03:00pm 22.7 19.5 -0.2 22 10.6 WNW 6 13 3 7 1021.7 1020.8 0.0
17/02:30pm 22.2 18.9 0.3 23 10.2 WNW 7 13 4 7 1021.9 1021.0 0.0
17/02:00pm 21.5 17.4 0.0 24 9.9 SE 11 15 6 8 1022.3 1021.4 0.0
17/01:30pm 21.5 18.0 1.4 26 9.5 E 9 15 5 8 1022.9 1022.0 0.0
17/01:00pm 21.1 17.7 -0.5 23 9.8 N 7 17 4 9 1023.3 1022.4 0.0
17/12:30pm 20.2 15.9 -1.5 23 9.6 ENE 11 15 6 8 1023.8 1022.9 0.0
17/12:00pm 19.5 14.7 -2.6 22 9.5 ENE 13 20 7 11 1024.3 1023.5 0.0
17/11:30am 18.9 14.0 -3.1 22 9.3 E 13 22 7 12 1024.8 1023.9 0.0
17/11:00am 18.1 13.3 -2.7 24 8.8 ENE 13 22 7 12 1024.9 1024.0 0.0
17/10:30am 16.8 11.7 -2.1 27 8.0 ENE 15 20 8 11 1024.9 1024.0 0.0
17/10:00am 15.1 10.7 -2.2 30 7.2 ESE 11 15 6 8 1025.3 1024.4 0.0
17/09:30am 12.1 7.7 -2.7 35 5.9 ESE 11 13 6 7 1025.1 1024.2 0.0
17/09:00am 9.6 5.5 -3.2 40 4.9 ESE 9 13 5 7 1024.6 1023.7 0.0
17/08:30am 7.8 3.7 -3.1 46 4.1 E 9 11 5 6 1024.3 1023.5 0.0
17/08:00am 6.1 1.6 -3.5 50 3.5 E 11 15 6 8 1023.9 1023.0 0.0
17/07:30am 5.4 0.5 -3.1 54 3.1 E 13 17 7 9 1023.7 1022.8 0.0
17/07:00am 5.3 1.6 -2.8 56 3.0 SE 7 9 4 5 1023.6 1022.7 0.0
17/06:30am 5.9 1.8 -3.0 53 3.3 ESE 9 11 5 6 1023.0 1022.1 0.0
17/06:00am 6.9 1.7 -3.0 49 3.7 SE 15 19 8 10 1022.9 1022.0 0.0
17/05:30am 8.5 2.3 -3.4 43 4.5 E 20 28 11 15 1021.7 1020.8 0.0
17/05:00am 7.9 2.6 -3.3 45 4.2 E 15 20 8 11 1022.2 1021.3 0.0
17/04:30am 7.6 1.9 -3.7 44 4.2 ESE 17 22 9 12 1022.3 1021.4 0.0
17/04:00am 6.5 1.2 -3.6 48 3.7 ESE 15 19 8 10 1022.5 1021.6 0.0
17/03:30am 6.1 1.2 -3.1 51 3.4 SSE 13 15 7 8 1023.1 1022.2 0.0
17/03:00am 7.3 2.0 -3.5 46 4.0 ESE 15 19 8 10 1022.9 1022.0 0.0
17/02:30am 6.6 2.1 -3.4 49 3.7 SE 11 13 6 7 1023.1 1022.2 0.0
17/02:00am 7.1 2.6 -3.4 47 3.9 SE 11 15 6 8 1023.1 1022.2 0.0
17/01:30am 8.2 3.7 -3.2 44 4.3 ESE 11 13 6 7 1022.9 1022.0 0.0
17/01:00am 8.8 4.3 -3.0 43 4.5 ESE 11 13 6 7 1023.0 1022.1 0.0
17/12:30am 10.0 5.1 -3.2 39 5.1 E 13 15 7 8 1023.1 1022.2 0.0
17/12:00am 10.0 5.1 -3.6 38 5.2 E 13 17 7 9 1023.3 1022.4 0.0
 
Date/Time
CST
Temp
°C
App
Temp
°C
Dew
Point
°C
Rel
Hum
%
Delta-T
°C
Wind Press
QNH
hPa
Press
MSL
hPa
Rain since
9am
mm
Dir  Spd
km/h
Gust
km/h
Spd
kts
Gust
kts
16/11:30pm 9.8 4.8 -4.0 37 5.2 SE 13 17 7 9 1023.4 1022.5 0.0
16/11:00pm 10.0 5.5 -3.6 38 5.2 SE 11 13 6 7 1023.4 1022.5 0.0
16/10:30pm 11.3 6.4 -3.3 36 5.7 E 13 15 7 8 1023.3 1022.4 0.0
16/10:00pm 12.6 7.7 -3.7 32 6.4 E 13 15 7 8 1023.4 1022.5 0.0
16/09:30pm 12.8 7.5 -3.4 32 6.4 E 15 17 8 9 1023.5 1022.6 0.0
16/09:00pm 12.9 8.0 -3.6 31 6.5 ESE 13 15 7 8 1023.6 1022.7 0.0
16/08:30pm 13.3 8.4 -3.2 31 6.6 ESE 13 15 7 8 1023.3 1022.4 0.0
16/08:00pm 13.9 9.0 -3.3 30 6.9 SE 13 13 7 7 1022.9 1022.0 0.0
16/07:30pm 14.7 10.3 -2.6 30 7.1 SE 11 11 6 6 1022.7 1021.8 0.0
16/07:00pm 16.0 11.2 -2.8 27 7.8 SE 13 15 7 8 1022.1 1021.2 0.0
16/06:30pm 17.4 12.6 -2.9 25 8.5 SE 13 15 7 8 1021.9 1021.0 0.0
16/06:00pm 19.4 14.4 -4.1 20 9.8 SE 13 19 7 10 1021.6 1020.7 0.0
16/05:30pm 20.3 15.0 -3.8 19 10.2 ESE 15 22 8 12 1021.4 1020.5 0.0
16/05:00pm 20.8 15.4 -4.5 18 10.6 ESE 15 22 8 12 1021.4 1020.5 0.0
16/04:30pm 21.0 15.2 -4.9 17 10.8 ESE 17 26 9 14 1021.3 1020.4 0.0
16/04:00pm 20.9 15.2 -3.8 18 10.5 SE 17 24 9 13 1021.4 1020.5 0.0
16/03:30pm 20.8 15.1 -3.6 19 10.4 ESE 17 24 9 13 1021.8 1020.9 0.0
16/03:00pm 21.1 15.0 -3.8 18 10.6 E 19 30 10 16 1021.8 1020.9 0.0
16/02:30pm 20.2 13.9 -4.1 19 10.2 ESE 20 35 11 19 1022.1 1021.2 0.0
16/02:00pm 20.3 13.7 -3.4 20 10.1 SE 22 30 12 16 1022.5 1021.6 0.0
16/01:30pm 19.7 13.6 -2.2 22 9.5 ESE 20 30 11 16 1022.9 1022.0 0.0
16/01:00pm 19.1 12.7 -1.4 25 9.0 E 22 37 12 20 1023.5 1022.6 0.0
16/12:30pm 18.7 12.4 -0.7 27 8.6 ESE 22 32 12 17 1024.0 1023.1 0.0
16/12:00pm 18.1 11.9 -0.4 28 8.2 ESE 22 32 12 17 1024.7 1023.8 0.0
16/11:30am 17.0 10.8 -0.6 30 7.7 ESE 22 32 12 17 1025.0 1024.1 0.0
16/11:00am 16.2 10.0 -0.6 32 7.3 ESE 22 32 12 17 1025.2 1024.3 0.0
16/10:30am 15.1 8.4 -0.8 33 6.8 ESE 24 32 13 17 1025.1 1024.2 0.0
16/10:00am 14.2 5.9 -1.6 33 6.6 ESE 32 43 17 23 1025.0 1024.1 0.0
16/09:30am 13.3 6.6 -1.0 37 6.0 ESE 24 35 13 19 1024.6 1023.7 0.0

Other formats

Comma delimited format used in spreadsheet applications
http://www.bom.gov.au/fwo/IDD60801/IDD60801.94461.axf

JavaScript Object Notation format (JSON) in row-major order
http://www.bom.gov.au/fwo/IDD60801/IDD60801.94461.json

Data quality

Most of these data are generated automatically and are frequently updated. Quality checks on data are not normally performed. It is possible for incorrect values to appear. Refer to information at About Latest Weather Observations and please check the disclaimer before using these data.